John M. Rivers (jr) — WDB8997 — position and weather

sailwx.info

Track history (hours):
 
Tides and Currents Weather Stations Pressure Air Temp Water Temp Dewpoint Dewpoint Depression Visibility Wind Speed Wind Dir Waves Ship Positions

John M. Rivers (jr)

Owner: Ingram Barge Company LLC, Nashville, TN. More information available from US FCC via Universal Licensing System and Coast Guard Vessel Documentation Center.

Last reported at 2017-Aug-10 12:17 UTC. Time now 2017-Aug-16 23:25 UTC.
Position N 41°10' W 091°01'.

Length 48 m; draft 2.9 m.

Type: Towing. MMSI: 366967620.

Date/timePositionNaut miles runAvg speedWind from/ knotsBaromVisibWave heightAir tempDewpointWater temp
2017-Aug-10 12:17N 41°10' W 091°01'3 2.9
2017-Aug-10 11:19N 41°08' W 090°58'1 3.1
2017-Aug-10 11:00N 41°07' W 090°58'1 2.9
2017-Aug-10 10:30N 41°06' W 090°57'2 3.1
2017-Aug-10 09:59N 41°04' W 090°57'1 3.1
2017-Aug-10 09:30N 41°03' W 090°57'1 2.9
2017-Aug-10 09:01N 41°01' W 090°57'1 2.5
2017-Aug-10 08:30N 41°00' W 090°57'1 2.1
2017-Aug-10 08:00N 40°59' W 090°57'2 3.0
2017-Aug-10 07:30N 40°58' W 090°57'2 3.6
2017-Aug-10 07:00N 40°56' W 090°58'2 3.0
2017-Aug-10 06:30N 40°55' W 090°59'2 3.5
2017-Aug-10 06:01N 40°54' W 091°01'1 1.8
2017-Aug-10 05:30N 40°53' W 091°01'0 0.2
2017-Aug-10 05:00N 40°53' W 091°01'0 0.1
2017-Aug-10 04:30N 40°53' W 091°02'0 0.4
2017-Aug-10 04:01N 40°53' W 091°02'2 3.4
2017-Aug-10 03:31N 40°51' W 091°03'2 3.4
2017-Aug-10 03:00N 40°50' W 091°05'2 3.5
2017-Aug-10 02:30N 40°49' W 091°06'1 3.0
2017-Aug-10 02:00N 40°47' W 091°06'  
Track history (hours):
 
Tides and Currents Weather Stations Pressure Air Temp Water Temp Dewpoint Dewpoint Depression Visibility Wind Speed Wind Dir Waves Ship Positions

John M. Rivers (jr)

Owner: Ingram Barge Company LLC, Nashville, TN. More information available from US FCC via Universal Licensing System and Coast Guard Vessel Documentation Center.

Last reported at 2017-Aug-10 12:17 UTC. Time now 2017-Aug-16 23:25 UTC.
Position N 41°10' W 091°01'.

Length 48 m; draft 2.9 m.

Type: Towing. MMSI: 366967620.

Date/timePositionNaut miles runAvg speedWind from/ knotsBaromVisibWave heightAir tempDewpointWater temp
2017-Aug-10 12:17N 41°10' W 091°01'3 2.9
2017-Aug-10 11:19N 41°08' W 090°58'1 3.1
2017-Aug-10 11:00N 41°07' W 090°58'1 2.9
2017-Aug-10 10:30N 41°06' W 090°57'2 3.1
2017-Aug-10 09:59N 41°04' W 090°57'1 3.1
2017-Aug-10 09:30N 41°03' W 090°57'1 2.9
2017-Aug-10 09:01N 41°01' W 090°57'1 2.5
2017-Aug-10 08:30N 41°00' W 090°57'1 2.1
2017-Aug-10 08:00N 40°59' W 090°57'2 3.0
2017-Aug-10 07:30N 40°58' W 090°57'2 3.6
2017-Aug-10 07:00N 40°56' W 090°58'2 3.0
2017-Aug-10 06:30N 40°55' W 090°59'2 3.5
2017-Aug-10 06:01N 40°54' W 091°01'1 1.8
2017-Aug-10 05:30N 40°53' W 091°01'0 0.2
2017-Aug-10 05:00N 40°53' W 091°01'0 0.1
2017-Aug-10 04:30N 40°53' W 091°02'0 0.4
2017-Aug-10 04:01N 40°53' W 091°02'2 3.4
2017-Aug-10 03:31N 40°51' W 091°03'2 3.4
2017-Aug-10 03:00N 40°50' W 091°05'2 3.5
2017-Aug-10 02:30N 40°49' W 091°06'1 3.0
2017-Aug-10 02:00N 40°47' W 091°06'  

Dump ship's entire track history